Time;durP1;ratioP1;P1;durP2;ratioP2;P2;SDS_P1;SDS_P2;PMS_P1;PMS_P2;Temp;Humidity;BMP_temperature;BMP_pressure;BME280_temperature;BME280_humidity;BME280_pressure;Samples;Min_cycle;Max_cycle;Signal;HPM_P1;HPM_P2
2022/07/19 00:00:01;;;;;;;;;9.00;8.25;;;;;28.63;39.81;101179.31;4912313;28;44766;-88
2022/07/19 00:02:26;;;;;;;;;10.75;9.00;;;;;28.58;39.19;101172.78;4931180;28;44819;-89
2022/07/19 00:04:52;;;;;;;;;7.25;5.00;;;;;28.62;34.57;101180.34;4931163;28;44902;-89
2022/07/19 00:07:17;;;;;;;;;5.25;5.25;;;;;28.68;35.82;101173.22;4914985;28;44761;-88
2022/07/19 00:09:43;;;;;;;;;7.25;7.00;;;;;28.69;36.61;101170.25;4932888;28;44762;-88
2022/07/19 00:12:10;;;;;;;;;4.25;4.25;;;;;28.65;37.77;101162.69;4922145;28;44965;-87
2022/07/19 00:14:36;;;;;;;;;5.40;5.40;;;;;28.68;37.93;101171.31;4938471;28;45366;-88
2022/07/19 00:17:02;;;;;;;;;8.00;6.00;;;;;28.64;39.61;101164.59;4916316;28;44736;-90
2022/07/19 00:19:38;;;;;;;;;9.75;8.00;;;;;28.57;40.18;101151.94;4925885;28;44652;-94
2022/07/19 00:28:40;;;;;;;;;8.00;7.20;;;;;28.28;41.53;101162.22;4945675;28;44746;-94
2022/07/19 00:31:11;;;;;;;;;9.00;5.60;;;;;28.17;40.88;101155.47;4912781;28;44576;-93
2022/07/19 00:34:21;;;;;;;;;7.00;7.00;;;;;28.06;40.54;101147.06;4913212;28;44867;-94
2022/07/19 00:36:58;;;;;;;;;11.00;7.25;;;;;28.03;40.92;101156.50;4924719;29;45586;-94
2022/07/19 00:39:32;;;;;;;;;8.80;8.80;;;;;27.99;41.21;101160.69;4891546;29;44767;-94
2022/07/19 00:42:09;;;;;;;;;7.60;7.60;;;;;27.92;40.86;101157.97;4902168;29;44849;-94
2022/07/19 00:47:41;;;;;;;;;4.40;4.40;;;;;27.77;40.70;101148.28;4995230;23;45190;-96
2022/07/19 00:50:29;;;;;;;;;7.40;6.40;;;;;27.76;41.26;101152.91;4924454;28;44757;-95
2022/07/19 00:56:29;;;;;;;;;6.00;6.00;;;;;27.67;42.06;101151.34;4945272;28;44753;-96
2022/07/19 00:58:56;;;;;;;;;8.60;7.20;;;;;27.62;41.92;101143.78;4908996;28;45155;-90
2022/07/19 01:01:22;;;;;;;;;4.00;4.00;;;;;27.56;42.36;101135.56;4927587;28;44789;-91
2022/07/19 01:03:48;;;;;;;;;7.75;7.00;;;;;27.55;41.18;101140.16;4901180;28;44850;-90
2022/07/19 01:06:14;;;;;;;;;7.00;6.25;;;;;27.55;41.60;101139.34;4921589;28;44809;-91
2022/07/19 01:08:41;;;;;;;;;9.75;7.25;;;;;27.52;41.46;101148.78;4919524;28;45292;-90
2022/07/19 01:11:06;;;;;;;;;7.80;6.20;;;;;27.49;42.00;101142.88;4926955;28;44725;-91
2022/07/19 01:13:33;;;;;;;;;11.00;7.00;;;;;27.47;41.67;101136.81;4913773;28;44831;-91
2022/07/19 01:15:59;;;;;;;;;7.75;6.75;;;;;27.44;41.24;101143.50;4917813;28;45181;-90
2022/07/19 01:18:26;;;;;;;;;8.00;6.50;;;;;27.40;41.86;101140.31;4936414;28;45403;-90
2022/07/19 01:20:52;;;;;;;;;5.80;5.80;;;;;27.38;42.47;101142.44;4932850;28;44850;-91
2022/07/19 01:23:17;;;;;;;;;7.25;6.25;;;;;27.35;42.08;101133.78;4912097;28;44786;-92
2022/07/19 01:25:43;;;;;;;;;7.25;6.75;;;;;27.31;42.07;101135.25;4912579;28;44889;-92
2022/07/19 01:28:09;;;;;;;;;7.25;7.25;;;;;27.28;41.66;101133.78;4927769;28;45139;-91
2022/07/19 01:30:35;;;;;;;;;6.50;6.00;;;;;27.27;42.25;101133.97;4923055;28;44829;-91
2022/07/19 01:33:01;;;;;;;;;7.80;6.20;;;;;27.26;42.80;101135.84;4923742;28;44736;-91
2022/07/19 01:35:28;;;;;;;;;6.25;6.25;;;;;27.27;43.01;101129.38;4922561;28;44945;-91
2022/07/19 01:37:56;;;;;;;;;9.00;6.20;;;;;27.27;42.48;101132.09;4922722;28;45238;-91
2022/07/19 01:40:22;;;;;;;;;5.60;5.00;;;;;27.24;43.16;101134.38;4906918;28;44715;-91
2022/07/19 01:42:48;;;;;;;;;8.60;7.20;;;;;27.22;42.99;101139.19;4906160;28;44761;-91
2022/07/19 01:45:14;;;;;;;;;6.60;5.40;;;;;27.16;43.52;101129.94;4926364;28;44850;-91
2022/07/19 01:47:43;;;;;;;;;5.80;5.80;;;;;27.11;43.95;101129.69;4924372;28;45084;-92
2022/07/19 01:50:10;;;;;;;;;8.00;5.20;;;;;27.06;44.75;101126.69;4895169;29;44594;-91
2022/07/19 01:52:36;;;;;;;;;7.00;5.80;;;;;27.00;44.83;101122.91;4911988;29;44826;-91
2022/07/19 01:55:02;;;;;;;;;6.50;5.25;;;;;26.95;46.21;101127.28;4911998;29;44842;-90
2022/07/19 01:57:28;;;;;;;;;9.60;6.40;;;;;26.87;47.81;101123.66;4911809;29;45263;-91
2022/07/19 01:59:54;;;;;;;;;10.20;7.80;;;;;26.83;48.59;101125.09;4878937;29;44754;-92
2022/07/19 02:02:20;;;;;;;;;8.25;8.00;;;;;26.76;49.89;101129.66;4910029;29;44759;-92
2022/07/19 02:04:46;;;;;;;;;10.25;7.75;;;;;26.68;50.79;101127.09;4912116;29;44687;-91
2022/07/19 02:07:11;;;;;;;;;7.00;6.00;;;;;26.62;50.70;101123.28;4913465;29;45206;-91
2022/07/19 02:09:37;;;;;;;;;7.25;6.75;;;;;26.60;50.67;101127.25;4913297;29;44642;-91
2022/07/19 02:12:02;;;;;;;;;6.50;6.50;;;;;26.53;50.67;101121.75;4910389;29;44853;-91
2022/07/19 02:14:28;;;;;;;;;9.00;7.75;;;;;26.52;50.19;101130.13;4896373;29;44816;-90
2022/07/19 02:16:53;;;;;;;;;8.50;7.00;;;;;26.47;50.96;101122.53;4917408;29;45276;-91
2022/07/19 02:19:20;;;;;;;;;5.75;5.75;;;;;26.44;52.31;101125.66;4920310;29;44736;-92
2022/07/19 02:21:45;;;;;;;;;10.00;7.00;;;;;26.38;55.02;101127.25;4895881;29;44876;-91
2022/07/19 02:24:11;;;;;;;;;3.00;3.00;;;;;26.31;55.34;101118.19;4911273;29;45317;-91
2022/07/19 02:26:36;;;;;;;;;6.75;6.00;;;;;26.27;55.54;101113.34;4890414;29;45356;-90
2022/07/19 02:29:03;;;;;;;;;6.25;6.25;;;;;26.20;55.92;101098.78;4906385;29;44766;-91
2022/07/19 02:31:28;;;;;;;;;9.20;6.00;;;;;26.17;56.14;101102.78;4911123;29;44797;-91
2022/07/19 02:33:54;;;;;;;;;8.00;5.25;;;;;26.11;54.89;101098.97;4902816;28;44997;-91
2022/07/19 02:36:19;;;;;;;;;7.50;6.75;;;;;26.09;55.62;101106.47;4912673;28;45158;-92
2022/07/19 02:38:45;;;;;;;;;5.75;5.75;;;;;26.04;55.53;101102.66;4930027;28;44647;-91
2022/07/19 02:41:13;;;;;;;;;7.00;5.60;;;;;26.01;55.47;101103.03;4926329;28;44799;-91
2022/07/19 02:43:39;;;;;;;;;7.00;7.00;;;;;25.99;55.37;101105.94;4928192;28;44773;-91
2022/07/19 02:46:04;;;;;;;;;7.75;6.00;;;;;25.93;55.85;101090.41;4926879;28;45361;-91
2022/07/19 02:48:30;;;;;;;;;6.75;5.25;;;;;25.94;56.25;101102.97;4909508;28;44846;-91
2022/07/19 02:50:55;;;;;;;;;6.00;6.00;;;;;25.91;56.41;101100.63;4910795;28;44815;-91
2022/07/19 02:53:21;;;;;;;;;6.50;6.50;;;;;25.87;55.27;101093.91;4932353;28;44808;-91
2022/07/19 02:55:46;;;;;;;;;4.75;4.75;;;;;25.88;54.77;101104.59;4932308;28;45081;-92
2022/07/19 02:58:12;;;;;;;;;5.25;5.25;;;;;25.86;55.03;101095.75;4934048;28;44779;-90
2022/07/19 03:00:38;;;;;;;;;7.50;6.00;;;;;25.82;55.08;101085.44;4928503;28;44790;-93
2022/07/19 03:05:49;;;;;;;;;5.60;5.60;;;;;25.78;54.44;101100.50;4929446;28;45332;-92
2022/07/19 03:08:15;;;;;;;;;6.00;6.00;;;;;25.75;55.16;101095.41;4915889;28;44735;-92
2022/07/19 03:10:41;;;;;;;;;5.00;5.00;;;;;25.70;55.41;101095.16;4914283;28;44661;-92
2022/07/19 03:13:08;;;;;;;;;5.50;5.25;;;;;25.69;55.11;101091.59;4927563;28;44972;-91
2022/07/19 03:15:35;;;;;;;;;6.20;5.00;;;;;25.66;55.73;101093.84;4927558;28;45266;-91
2022/07/19 03:18:00;;;;;;;;;6.40;5.20;;;;;25.62;56.84;101091.50;4927426;28;45344;-90
2022/07/19 03:20:26;;;;;;;;;6.00;6.00;;;;;25.61;56.54;101091.69;4907109;28;44754;-90
2022/07/19 03:22:51;;;;;;;;;8.00;7.00;;;;;25.58;55.97;101086.66;4908396;28;44952;-90
2022/07/19 03:25:16;;;;;;;;;6.25;6.25;;;;;25.55;57.13;101090.59;4917098;28;45414;-90
2022/07/19 03:27:42;;;;;;;;;5.00;5.00;;;;;25.51;57.95;101094.72;4943429;28;44722;-90
2022/07/19 03:30:08;;;;;;;;;9.50;5.25;;;;;25.48;56.91;101091.53;4932924;28;44728;-90
2022/07/19 03:32:34;;;;;;;;;7.00;6.00;;;;;25.45;56.91;101091.94;4915729;28;44854;-91
2022/07/19 03:34:59;;;;;;;;;7.00;5.25;;;;;25.42;56.38;101090.44;4928483;28;45092;-91
2022/07/19 03:37:25;;;;;;;;;6.25;6.25;;;;;25.41;56.78;101096.91;4928505;28;44809;-90
2022/07/19 03:39:50;;;;;;;;;7.50;5.25;;;;;25.38;55.98;101091.84;4929371;28;44671;-90
2022/07/19 03:42:16;;;;;;;;;5.75;5.75;;;;;25.40;55.14;101097.13;4912357;28;44959;-91
2022/07/19 03:44:41;;;;;;;;;8.00;6.00;;;;;25.38;56.21;101103.59;4933703;28;45202;-91
2022/07/19 03:47:07;;;;;;;;;6.75;6.25;;;;;25.37;55.92;101101.88;4942130;28;44580;-89
2022/07/19 03:49:32;;;;;;;;;5.25;5.00;;;;;25.39;56.91;101096.28;4936501;28;44908;-92
2022/07/19 03:51:58;;;;;;;;;5.00;5.00;;;;;25.40;57.33;101097.97;4909536;28;45010;-91
2022/07/19 03:54:23;;;;;;;;;6.75;6.75;;;;;25.37;58.12;101092.88;4929484;28;45268;-91
2022/07/19 03:56:49;;;;;;;;;6.25;6.25;;;;;25.37;58.24;101093.72;4930157;28;44632;-91
2022/07/19 03:59:14;;;;;;;;;5.50;4.25;;;;;25.33;59.70;101086.97;4934060;28;44721;-90
2022/07/19 04:01:40;;;;;;;;;7.25;6.00;;;;;25.31;61.14;101088.22;4934987;28;45020;-91
2022/07/19 04:04:06;;;;;;;;;6.00;6.00;;;;;25.33;62.37;101089.69;4932150;28;44928;-91
2022/07/19 04:06:32;;;;;;;;;8.60;6.20;;;;;25.33;62.89;101091.56;4917059;28;44745;-89
2022/07/19 04:08:57;;;;;;;;;5.75;5.75;;;;;25.32;62.00;101089.91;4931573;28;44769;-91
2022/07/19 04:11:23;;;;;;;;;9.25;9.25;;;;;25.31;62.21;101088.22;4929820;28;45308;-91
2022/07/19 04:13:48;;;;;;;;;9.50;8.75;;;;;25.32;61.27;101092.63;4930361;28;45138;-91
2022/07/19 04:16:14;;;;;;;;;9.25;6.50;;;;;25.27;60.65;101089.63;4928743;28;44811;-90
2022/07/19 04:18:39;;;;;;;;;7.25;7.25;;;;;25.24;59.26;101090.00;4924409;28;44816;-89
2022/07/19 04:21:05;;;;;;;;;10.50;9.25;;;;;25.23;59.61;101091.88;4906671;28;44837;-90
2022/07/19 04:23:31;;;;;;;;;7.00;7.00;;;;;25.23;59.54;101088.31;4907207;28;45246;-90
2022/07/19 04:25:57;;;;;;;;;8.75;6.25;;;;;25.23;59.39;101088.31;4925394;28;44806;-90
2022/07/19 04:28:22;;;;;;;;;6.50;6.50;;;;;25.25;59.64;101089.00;4926257;28;44703;-90
2022/07/19 04:30:48;;;;;;;;;7.50;7.00;;;;;25.26;59.96;101080.63;4930007;28;44723;-90
2022/07/19 04:33:15;;;;;;;;;8.00;7.25;;;;;25.32;59.68;101082.56;4930761;28;45040;-90
2022/07/19 04:35:42;;;;;;;;;5.20;5.20;;;;;25.39;59.47;101088.13;4914976;28;44827;-90
2022/07/19 04:38:07;;;;;;;;;8.60;6.60;;;;;25.46;59.62;101080.88;4917566;28;44841;-91
2022/07/19 04:40:33;;;;;;;;;7.75;6.75;;;;;25.54;60.47;101078.03;4938666;28;44922;-89
2022/07/19 04:42:58;;;;;;;;;7.25;6.25;;;;;25.66;61.24;101083.81;4922781;28;46842;-90
2022/07/19 04:45:24;;;;;;;;;7.00;7.00;;;;;25.73;62.64;101075.72;4939801;28;44754;-88
2022/07/19 04:47:49;;;;;;;;;7.00;7.00;;;;;25.83;62.07;101076.28;4943364;28;44698;-91
2022/07/19 04:50:15;;;;;;;;;8.00;7.00;;;;;25.95;61.97;101076.59;4952008;28;44837;-88
2022/07/19 04:52:40;;;;;;;;;8.00;6.75;;;;;26.04;62.51;101073.53;4948017;28;45553;-92
2022/07/19 04:55:06;;;;;;;;;6.25;6.25;;;;;26.15;62.83;101069.44;4926883;28;44667;-90
2022/07/19 04:57:32;;;;;;;;;6.00;6.00;;;;;26.28;62.69;101075.00;4944554;28;45245;-90
2022/07/19 04:59:57;;;;;;;;;10.00;7.25;;;;;26.39;63.21;101081.78;4944663;28;44752;-90
2022/07/19 05:02:23;;;;;;;;;8.25;6.75;;;;;26.50;62.45;101070.38;4928096;28;46717;-89
2022/07/19 05:04:48;;;;;;;;;8.50;8.00;;;;;26.65;61.88;101068.38;4945861;28;44718;-91
2022/07/19 05:07:15;;;;;;;;;10.25;8.00;;;;;26.79;62.27;101073.91;4947756;28;44782;-89
2022/07/19 05:09:41;;;;;;;;;9.25;6.50;;;;;26.94;62.05;101073.78;4950197;28;44811;-90
2022/07/19 05:12:07;;;;;;;;;7.50;7.50;;;;;27.06;61.55;101063.97;4951910;28;45120;-91
2022/07/19 05:14:33;;;;;;;;;6.40;6.40;;;;;27.23;61.05;101072.69;4947634;28;45423;-89
2022/07/19 05:16:59;;;;;;;;;7.60;5.80;;;;;27.37;61.30;101067.06;4946289;28;44833;-89
2022/07/19 05:19:25;;;;;;;;;9.00;6.75;;;;;27.57;60.01;101069.84;4929174;28;44878;-91
2022/07/19 05:21:50;;;;;;;;;11.50;9.00;;;;;27.75;60.25;101063.81;4927795;28;46610;-90
2022/07/19 05:24:16;;;;;;;;;6.00;6.00;;;;;27.95;59.90;101066.59;4943949;28;45158;-90
2022/07/19 05:26:42;;;;;;;;;9.00;9.00;;;;;28.13;59.45;101065.94;4938902;28;44760;-91
2022/07/19 05:29:08;;;;;;;;;11.75;9.50;;;;;28.30;59.49;101069.09;4941791;28;45007;-91
2022/07/19 05:31:33;;;;;;;;;8.00;8.00;;;;;28.45;59.40;101058.81;4941939;28;45396;-90
2022/07/19 05:33:59;;;;;;;;;8.00;8.00;;;;;28.66;58.57;101066.75;4944659;28;44732;-90
2022/07/19 05:36:26;;;;;;;;;8.50;8.00;;;;;28.85;57.54;101075.13;4934871;28;44698;-91
2022/07/19 05:38:53;;;;;;;;;11.25;9.00;;;;;29.08;57.78;101074.69;4937540;28;45280;-90
2022/07/19 05:41:21;;;;;;;;;8.75;8.75;;;;;29.24;56.85;101067.84;4953532;28;45720;-90
2022/07/19 05:43:48;;;;;;;;;8.40;8.40;;;;;29.41;56.23;101058.94;4955293;28;45170;-89
2022/07/19 05:46:14;;;;;;;;;8.40;7.00;;;;;29.64;57.65;101063.91;4964495;28;44689;-89
2022/07/19 05:48:39;;;;;;;;;12.00;10.00;;;;;29.78;55.01;101061.88;4948663;28;44903;-91
2022/07/19 05:51:05;;;;;;;;;7.50;6.00;;;;;30.00;53.26;101065.09;4945890;28;45116;-91
2022/07/19 05:53:31;;;;;;;;;11.50;9.00;;;;;30.21;52.48;101063.91;4946625;28;45294;-90
2022/07/19 05:55:57;;;;;;;;;10.20;7.80;;;;;30.38;52.24;101067.75;4947294;28;44806;-91
2022/07/19 05:58:24;;;;;;;;;9.50;9.00;;;;;30.57;50.89;101068.63;4948318;28;44859;-91
2022/07/19 06:08:46;;;;;;;;;10.50;8.25;;;;;31.17;47.44;101055.06;5394676;23;45808;-91
2022/07/19 06:11:12;;;;;;;;;8.40;7.40;;;;;31.34;48.45;101049.81;4923836;28;45456;-91
2022/07/19 06:13:38;;;;;;;;;9.40;7.80;;;;;31.45;46.63;101056.44;4927425;28;44808;-90
2022/07/19 06:16:04;;;;;;;;;11.00;8.50;;;;;31.58;46.02;101050.75;4925936;28;44774;-90
2022/07/19 06:18:34;;;;;;;;;11.00;8.25;;;;;31.73;45.34;101055.81;4928931;28;44743;-90
2022/07/19 06:21:06;;;;;;;;;8.40;8.00;;;;;31.87;45.14;101046.31;4927343;28;45131;-91
2022/07/19 06:23:33;;;;;;;;;9.20;9.20;;;;;32.03;44.25;101043.94;4929048;28;44682;-92
2022/07/19 06:25:59;;;;;;;;;11.00;7.60;;;;;32.17;44.71;101043.47;4931991;28;44801;-91
2022/07/19 06:28:27;;;;;;;;;7.25;7.25;;;;;32.35;44.94;101044.41;4934499;28;44964;-90
2022/07/19 06:30:53;;;;;;;;;11.25;9.75;;;;;32.47;44.22;101043.38;4931113;28;45389;-89
2022/07/19 06:33:19;;;;;;;;;12.20;8.60;;;;;32.62;43.85;101031.88;4928807;28;44728;-90
2022/07/19 06:35:45;;;;;;;;;11.80;8.40;;;;;32.75;42.97;101036.28;4928856;28;44705;-89
2022/07/19 06:38:10;;;;;;;;;13.00;8.25;;;;;32.87;42.61;101039.00;4927256;28;44767;-89
2022/07/19 06:40:36;;;;;;;;;9.50;9.50;;;;;32.99;42.30;101028.84;4926855;28;45038;-89
2022/07/19 06:43:03;;;;;;;;;9.25;9.25;;;;;33.02;42.28;101022.84;4927055;28;44746;-90
2022/07/19 06:45:29;;;;;;;;;11.00;9.40;;;;;33.16;41.48;101028.88;4929109;28;44756;-90
2022/07/19 06:47:57;;;;;;;;;10.75;9.00;;;;;33.30;41.29;101022.00;4930048;28;45581;-90
2022/07/19 06:50:23;;;;;;;;;12.00;9.80;;;;;33.35;40.87;101018.50;4929605;28;46575;-90
2022/07/19 06:52:49;;;;;;;;;8.75;7.50;;;;;33.49;41.51;101015.22;4928209;28;44619;-89
2022/07/19 06:55:14;;;;;;;;;15.00;10.00;;;;;33.61;40.15;101012.44;4928407;28;44653;-89
2022/07/19 06:57:40;;;;;;;;;9.50;9.00;;;;;33.72;39.44;101014.25;4913316;28;44905;-90
2022/07/19 07:00:09;;;;;;;;;10.75;10.75;;;;;33.77;39.02;101021.78;4934930;28;46581;-89
2022/07/19 07:02:39;;;;;;;;;16.20;11.00;;;;;33.90;39.23;101015.13;4932453;28;44764;-90
2022/07/19 07:05:06;;;;;;;;;10.20;9.40;;;;;33.94;39.08;101019.03;4924555;28;44706;-90
2022/07/19 07:07:34;;;;;;;;;11.00;9.00;;;;;34.03;38.07;101016.72;4932334;28;44845;-90
2022/07/19 07:10:01;;;;;;;;;12.75;11.75;;;;;34.15;38.12;101020.22;4930288;28;46768;-90
2022/07/19 07:12:28;;;;;;;;;12.00;9.20;;;;;34.21;37.85;101014.53;4930501;28;45454;-90
2022/07/19 07:14:54;;;;;;;;;12.20;9.20;;;;;34.34;37.26;101015.28;4937041;28;44793;-91
2022/07/19 07:17:20;;;;;;;;;10.75;9.25;;;;;34.43;36.77;101009.06;4935918;28;44833;-90
2022/07/19 07:19:46;;;;;;;;;9.25;9.00;;;;;34.47;36.56;101012.16;4935113;28;45656;-90
2022/07/19 07:22:12;;;;;;;;;9.75;8.75;;;;;34.49;37.54;101004.47;4930862;28;44785;-90
2022/07/19 07:24:37;;;;;;;;;11.50;10.00;;;;;34.59;36.74;101007.38;4927645;28;45443;-91
2022/07/19 07:27:03;;;;;;;;;12.75;10.50;;;;;34.67;35.78;101006.94;4927401;28;44840;-90
2022/07/19 07:29:28;;;;;;;;;12.75;12.25;;;;;34.67;37.19;101006.94;4926370;28;45002;-90
2022/07/19 07:31:57;;;;;;;;;10.50;9.50;;;;;34.72;36.52;101006.16;4925279;28;44807;-90
2022/07/19 07:34:22;;;;;;;;;14.80;11.00;;;;;34.76;36.58;100996.25;4933484;28;45289;-89
2022/07/19 07:36:48;;;;;;;;;13.25;9.25;;;;;34.70;36.06;100997.28;4943723;28;44729;-89
2022/07/19 07:39:14;;;;;;;;;10.00;9.25;;;;;34.74;35.66;101002.03;4941731;28;46618;-90
2022/07/19 07:41:40;;;;;;;;;10.50;7.25;;;;;34.75;35.44;100995.41;4941561;28;44627;-89
2022/07/19 07:44:05;;;;;;;;;13.60;10.20;;;;;34.81;35.56;100998.25;4941526;28;44670;-89
2022/07/19 07:46:32;;;;;;;;;8.00;7.75;;;;;34.82;35.09;100986.13;4940582;28;44840;-89
2022/07/19 07:48:58;;;;;;;;;11.75;9.25;;;;;34.82;35.13;100991.66;4939985;28;45293;-89
2022/07/19 07:51:24;;;;;;;;;9.75;8.50;;;;;34.73;35.88;100996.78;4945450;28;44765;-90
2022/07/19 07:53:50;;;;;;;;;13.00;10.50;;;;;34.70;36.91;100991.78;4960317;28;44751;-88
2022/07/19 07:56:16;;;;;;;;;12.75;12.75;;;;;34.64;35.88;100982.59;4959140;28;45585;-89
2022/07/19 07:58:41;;;;;;;;;10.75;10.00;;;;;34.63;35.83;100983.69;4943088;28;46698;-89
2022/07/19 08:01:07;;;;;;;;;10.75;10.50;;;;;34.60;35.65;100975.09;4948596;28;44728;-89
2022/07/19 08:03:33;;;;;;;;;16.25;12.25;;;;;34.56;35.77;100977.50;4963515;28;44749;-88
2022/07/19 08:05:58;;;;;;;;;11.75;10.00;;;;;34.56;36.67;100971.16;4970311;28;44776;-89
2022/07/19 08:08:26;;;;;;;;;13.00;10.50;;;;;34.44;35.27;100965.75;4966649;28;46715;-89
2022/07/19 08:10:56;;;;;;;;;14.00;10.20;;;;;34.39;36.08;100955.47;4947436;28;44776;-90
2022/07/19 08:13:22;;;;;;;;;14.00;11.60;;;;;34.37;36.61;100962.31;4936598;28;44685;-89
2022/07/19 08:15:48;;;;;;;;;12.00;11.50;;;;;34.35;36.69;100954.31;4941559;28;44834;-90
2022/07/19 08:18:13;;;;;;;;;11.25;9.75;;;;;34.42;36.81;100951.34;4942093;28;45429;-89
2022/07/19 08:20:39;;;;;;;;;15.75;12.75;;;;;34.41;36.29;100941.41;4947444;28;44760;-90
2022/07/19 08:23:04;;;;;;;;;15.25;11.75;;;;;34.40;36.47;100948.03;4950765;28;44677;-90
2022/07/19 08:25:32;;;;;;;;;11.25;9.50;;;;;34.46;35.90;100950.63;4963685;28;44828;-88
2022/07/19 08:27:57;;;;;;;;;10.25;9.75;;;;;34.46;35.82;100942.34;4961249;28;45307;-89
2022/07/19 08:30:23;;;;;;;;;12.50;11.25;;;;;34.52;35.01;100951.50;4946756;28;44681;-89
2022/07/19 08:33:06;;;;;;;;;13.25;8.25;;;;;34.54;35.58;100945.75;4947885;28;44832;-90
2022/07/19 08:35:32;;;;;;;;;11.75;11.75;;;;;34.61;35.37;100955.50;4948915;28;44798;-89
2022/07/19 08:37:58;;;;;;;;;10.00;9.50;;;;;34.66;35.51;100944.50;4944981;28;45208;-89
2022/07/19 08:40:23;;;;;;;;;12.25;10.00;;;;;34.69;35.09;100938.50;4956557;28;44725;-87
2022/07/19 08:42:50;;;;;;;;;13.50;11.00;;;;;34.78;35.55;100942.47;4940743;28;44742;-90
2022/07/19 08:45:16;;;;;;;;;11.50;10.25;;;;;34.91;35.37;100927.44;4946032;28;44773;-90
2022/07/19 08:47:44;;;;;;;;;8.25;8.25;;;;;34.97;34.20;100931.09;4941080;28;45061;-90
2022/07/19 08:50:11;;;;;;;;;9.80;8.60;;;;;34.99;33.43;100929.75;4941070;28;44762;-88
2022/07/19 08:52:37;;;;;;;;;8.60;8.60;;;;;35.01;34.54;100922.03;4942560;28;44797;-91
2022/07/19 08:55:03;;;;;;;;;8.50;8.50;;;;;35.06;32.87;100931.44;4947675;28;44946;-90
2022/07/19 09:00:15;;;;;;;;;11.40;10.20;;;;;35.18;31.83;100930.19;4949359;28;44787;-86
2022/07/19 09:02:53;;;;;;;;;9.00;7.20;;;;;35.22;32.02;100917.53;4947607;28;44732;-89
2022/07/19 09:05:19;;;;;;;;;10.25;9.25;;;;;35.25;31.04;100919.78;4940190;28;44884;-90
2022/07/19 09:08:00;;;;;;;;;5.50;2.25;;;;;35.26;30.45;100926.97;4939189;28;45462;-88
2022/07/19 09:10:26;;;;;;;;;7.20;7.20;;;;;35.35;30.54;100918.22;4942686;28;44866;-87
2022/07/19 09:13:10;;;;;;;;;8.50;8.50;;;;;35.43;29.67;100914.94;4959799;28;44765;-90
2022/07/19 09:15:43;;;;;;;;;9.00;9.00;;;;;35.48;29.74;100913.09;4959655;28;44898;-89
2022/07/19 09:18:11;;;;;;;;;9.50;9.50;;;;;35.57;30.12;100907.06;4962016;28;45209;-89
2022/07/19 09:20:39;;;;;;;;;8.00;8.00;;;;;35.59;29.77;100899.34;4972591;28;44727;-89
2022/07/19 09:23:05;;;;;;;;;10.60;8.40;;;;;35.66;29.82;100906.31;4948621;28;45355;-87
2022/07/19 09:25:45;;;;;;;;;9.50;8.50;;;;;35.69;29.84;100899.44;4945583;28;44774;-87
2022/07/19 09:28:10;;;;;;;;;7.00;6.80;;;;;35.69;29.31;100902.22;4947752;28;45050;-90
2022/07/19 09:30:56;;;;;;;;;10.00;9.00;;;;;35.79;28.92;100899.50;4964528;28;45677;-89
2022/07/19 09:33:27;;;;;;;;;11.40;9.80;;;;;35.96;29.94;100891.88;4945017;28;44865;-90
2022/07/19 09:36:00;;;;;;;;;9.75;8.25;;;;;36.09;29.52;100892.53;4943830;28;44964;-89
2022/07/19 09:38:30;;;;;;;;;9.50;8.75;;;;;36.18;29.51;100888.13;4940983;28;46539;-87
2022/07/19 09:41:17;;;;;;;;;9.40;9.20;;;;;36.24;28.50;100887.88;4941334;28;44907;-87
2022/07/19 09:43:52;;;;;;;;;8.60;8.00;;;;;36.35;28.21;100879.63;4940267;28;44954;-91
2022/07/19 09:46:38;;;;;;;;;10.00;7.75;;;;;36.40;27.24;100876.88;4943661;28;44767;-87
2022/07/19 09:49:15;;;;;;;;;10.75;9.75;;;;;36.43;27.27;100879.13;4943469;28;45343;-90
2022/07/19 09:51:43;;;;;;;;;2.40;0.00;;;;;36.51;26.49;100878.63;4944732;28;44683;-91
2022/07/19 09:54:12;;;;;;;;;8.00;8.00;;;;;36.54;26.32;100875.28;4946825;28;44896;-87
2022/07/19 09:56:39;;;;;;;;;10.25;9.25;;;;;36.59;26.50;100868.94;4947873;28;44798;-89
2022/07/19 09:59:05;;;;;;;;;10.50;9.00;;;;;36.59;26.46;100872.53;4946211;28;45636;-90
2022/07/19 10:01:32;;;;;;;;;7.40;6.80;;;;;36.64;26.99;100864.25;4945944;28;45466;-88
2022/07/19 10:04:06;;;;;;;;;10.00;9.00;;;;;36.75;26.39;100863.16;4943241;28;45451;-88
2022/07/19 10:06:33;;;;;;;;;10.50;8.50;;;;;36.85;25.66;100861.53;4942447;28;44744;-88
2022/07/19 10:09:01;;;;;;;;;10.25;8.75;;;;;36.87;25.17;100862.06;4945121;28;45231;-91
2022/07/19 10:11:30;;;;;;;;;9.80;7.00;;;;;36.97;25.90;100853.81;4942803;28;45279;-89
2022/07/19 10:13:56;;;;;;;;;9.40;8.20;;;;;37.04;25.80;100855.22;4943468;28;44725;-89
2022/07/19 10:16:30;;;;;;;;;9.25;7.75;;;;;37.10;25.04;100841.34;4950828;28;44912;-87
2022/07/19 10:19:08;;;;;;;;;7.75;7.00;;;;;37.20;24.79;100846.88;4953950;28;45081;-87
2022/07/19 10:21:36;;;;;;;;;8.40;7.60;;;;;37.31;24.51;100840.22;4949173;28;45402;-88
2022/07/19 10:24:02;;;;;;;;;8.40;8.40;;;;;37.40;24.46;100824.72;4949573;28;44795;-90
2022/07/19 10:26:37;;;;;;;;;8.50;8.50;;;;;37.49;24.43;100828.59;4961079;28;44930;-87
2022/07/19 10:29:11;;;;;;;;;9.50;7.25;;;;;37.56;24.02;100820.78;4962521;28;45262;-87
2022/07/19 10:31:41;;;;;;;;;8.80;8.20;;;;;37.69;23.32;100824.94;4948465;28;44823;-89
2022/07/19 10:34:20;;;;;;;;;8.00;6.60;;;;;37.71;23.66;100808.84;4945732;28;44756;-90
2022/07/19 10:36:48;;;;;;;;;8.25;8.00;;;;;37.84;23.47;100803.84;4944278;28;44763;-89
2022/07/19 10:39:35;;;;;;;;;8.25;7.25;;;;;37.97;23.14;100806.03;4941304;28;46618;-88
2022/07/19 10:42:08;;;;;;;;;8.40;8.20;;;;;38.05;22.52;100806.25;4944081;28;44744;-88
2022/07/19 10:44:34;;;;;;;;;8.00;8.00;;;;;38.13;21.68;100795.66;4947603;28;45463;-87
2022/07/19 10:47:00;;;;;;;;;6.50;6.50;;;;;38.17;22.28;100788.44;4948686;28;44806;-87
2022/07/19 10:49:44;;;;;;;;;6.50;6.50;;;;;38.26;22.46;100787.56;4959044;28;46797;-87
2022/07/19 10:52:31;;;;;;;;;8.80;7.20;;;;;38.43;21.70;100786.38;4943261;28;44776;-88
2022/07/19 10:55:15;;;;;;;;;7.75;7.75;;;;;38.47;21.47;100782.72;4945128;28;44844;-87
2022/07/19 10:57:42;;;;;;;;;10.75;7.75;;;;;38.56;21.04;100788.50;4946344;28;45157;-87
2022/07/19 11:00:27;;;;;;;;;6.75;6.75;;;;;38.61;21.14;100787.63;4948559;28;45137;-89
2022/07/19 11:03:21;;;;;;;;;8.00;7.60;;;;;38.70;20.71;100786.72;4949015;28;44904;-90
2022/07/19 11:06:02;;;;;;;;;12.50;9.00;;;;;38.80;19.60;100786.69;4960483;28;44850;-87
2022/07/19 11:08:32;;;;;;;;;10.50;8.25;;;;;38.92;20.04;100772.41;4942918;28;44836;-87
2022/07/19 11:11:15;;;;;;;;;9.25;8.25;;;;;38.98;20.45;100765.69;4944542;28;45305;-87
2022/07/19 11:13:47;;;;;;;;;11.00;9.60;;;;;39.01;20.65;100769.81;4949033;28;44697;-88
2022/07/19 11:16:13;;;;;;;;;10.25;8.75;;;;;39.03;19.72;100773.16;4922032;28;45245;-88
2022/07/19 11:18:39;;;;;;;;;8.50;8.50;;;;;39.03;20.37;100773.16;4927201;28;44833;-89
2022/07/19 11:21:06;;;;;;;;;9.50;8.75;;;;;39.08;19.80;100764.78;4927694;28;46529;-90
2022/07/19 11:23:38;;;;;;;;;7.60;7.60;;;;;39.16;20.14;100761.34;4928626;28;44672;-90
2022/07/19 11:26:14;;;;;;;;;10.60;8.00;;;;;39.16;19.65;100757.72;4927705;28;44672;-88
2022/07/19 11:28:42;;;;;;;;;10.50;8.00;;;;;39.21;19.10;100766.03;4929120;28;44796;-91
2022/07/19 11:31:18;;;;;;;;;8.50;6.75;;;;;39.27;19.47;100751.81;4931287;28;45486;-87
2022/07/19 11:33:45;;;;;;;;;11.20;7.20;;;;;39.36;18.95;100754.78;4930668;28;44764;-87
2022/07/19 11:36:11;;;;;;;;;7.75;7.00;;;;;39.41;18.85;100753.88;4927726;28;44812;-89
2022/07/19 11:38:44;;;;;;;;;13.00;10.50;;;;;39.49;18.79;100747.69;4930517;28;44796;-87
2022/07/19 11:41:22;;;;;;;;;14.50;9.50;;;;;39.58;19.58;100741.16;4928403;28;45097;-88
2022/07/19 11:44:07;;;;;;;;;8.00;7.40;;;;;39.72;18.59;100735.75;4928581;28;44806;-90
2022/07/19 11:46:40;;;;;;;;;10.25;8.00;;;;;39.74;19.16;100735.44;4936525;28;44854;-91
2022/07/19 11:49:08;;;;;;;;;5.75;4.50;;;;;39.74;18.56;100739.03;4935903;28;44832;-91
2022/07/19 11:51:34;;;;;;;;;10.25;8.50;;;;;39.77;19.06;100732.06;4926959;28;45408;-91